Time;durP1;ratioP1;P1;durP2;ratioP2;P2;SDS_P1;SDS_P2;PMS_P1;PMS_P2;Temp;Humidity;BMP_temperature;BMP_pressure;BME280_temperature;BME280_humidity;BME280_pressure;Samples;Min_cycle;Max_cycle;Signal;HPM_P1;HPM_P2
2021/12/25 00:02:46;;;;;;;2.47;0.85;;;;;;;-1.92;100.00;99947.94;6050813;29;20096;-87
2021/12/25 00:05:52;;;;;;;1.10;0.80;;;;;;;-2.00;100.00;99955.03;6050089;29;20053;-87
2021/12/25 00:08:54;;;;;;;2.45;0.77;;;;;;;-2.00;100.00;99948.22;6051826;29;20063;-87
2021/12/25 00:11:56;;;;;;;2.92;1.00;;;;;;;-1.99;100.00;99962.59;6034855;29;20072;-87
2021/12/25 00:14:58;;;;;;;0.85;0.85;;;;;;;-2.01;100.00;99961.81;6051575;29;20052;-87
2021/12/25 00:17:59;;;;;;;1.75;0.60;;;;;;;-2.05;100.00;99967.03;6050912;29;20045;-87
2021/12/25 00:21:02;;;;;;;4.63;0.68;;;;;;;-2.10;100.00;99974.81;6051570;29;20697;-87
2021/12/25 00:24:05;;;;;;;3.65;0.95;;;;;;;-2.09;100.00;99981.53;6033712;29;20057;-87
2021/12/25 00:27:34;;;;;;;1.20;0.80;;;;;;;-2.04;100.00;99983.91;6020144;29;20048;-87
2021/12/25 00:33:59;;;;;;;2.28;1.02;;;;;;;-1.93;100.00;99994.50;6047511;29;20049;-87
2021/12/25 00:37:02;;;;;;;1.48;0.60;;;;;;;-1.81;100.00;100006.72;6005569;29;20046;-87
2021/12/25 00:40:06;;;;;;;2.13;1.02;;;;;;;-1.80;100.00;99998.22;6024747;29;20057;-87
2021/12/25 00:43:09;;;;;;;1.70;0.80;;;;;;;-1.71;100.00;100003.84;6039635;29;20048;-87
2021/12/25 00:46:10;;;;;;;1.60;0.68;;;;;;;-1.67;100.00;100011.28;6029480;29;20076;-87
2021/12/25 00:49:12;;;;;;;1.38;0.60;;;;;;;-1.69;100.00;100017.31;6029597;29;20800;-87
2021/12/25 00:52:15;;;;;;;0.73;0.70;;;;;;;-1.70;100.00;100024.09;6013371;29;20041;-87
2021/12/25 00:55:17;;;;;;;1.65;0.73;;;;;;;-1.70;100.00;100030.88;6031786;29;20049;-88
2021/12/25 00:58:19;;;;;;;2.03;0.88;;;;;;;-1.73;100.00;100035.19;6024660;29;20106;-87
2021/12/25 01:01:21;;;;;;;3.38;0.82;;;;;;;-1.76;100.00;100037.00;6024361;29;20075;-87
2021/12/25 01:04:24;;;;;;;2.47;0.80;;;;;;;-1.69;100.00;100041.00;6033742;29;20574;-88
2021/12/25 01:07:26;;;;;;;1.75;0.60;;;;;;;-1.63;100.00;100034.84;6011679;29;20048;-88
2021/12/25 01:10:28;;;;;;;2.60;0.70;;;;;;;-1.63;100.00;100035.69;6039694;29;20086;-87
2021/12/25 01:13:35;;;;;;;1.23;0.95;;;;;;;-1.60;100.00;100032.19;6029195;29;20041;-87
2021/12/25 01:20:36;;;;;;;2.47;0.63;;;;;;;-1.71;100.00;100037.69;6018721;29;19935;-88
2021/12/25 01:38:24;;;;;;;1.48;0.85;;;;;;;-2.19;100.00;100046.09;6029755;29;19963;-88
2021/12/25 01:48:43;;;;;;;0.80;0.70;;;;;;;-2.50;100.00;100056.47;6027324;29;20053;-88
2021/12/25 01:51:45;;;;;;;1.25;0.90;;;;;;;-2.57;100.00;100065.97;6027751;29;20041;-88
2021/12/25 01:54:47;;;;;;;3.22;0.95;;;;;;;-2.61;100.00;100079.59;6018501;29;20707;-88
2021/12/25 01:57:49;;;;;;;2.03;0.68;;;;;;;-2.54;100.00;100083.59;6016577;29;20045;-88
2021/12/25 02:00:54;;;;;;;1.77;0.77;;;;;;;-2.58;100.00;100074.44;6027924;29;20049;-88
2021/12/25 02:03:57;;;;;;;1.88;0.80;;;;;;;-2.63;100.00;100081.38;6025286;29;20045;-88
2021/12/25 02:07:01;;;;;;;1.98;0.90;;;;;;;-2.58;100.00;100082.06;6032101;29;20041;-88
2021/12/25 02:10:05;;;;;;;1.55;0.75;;;;;;;-2.50;100.00;100089.41;6042863;29;20049;-88
2021/12/25 02:13:11;;;;;;;1.85;0.65;;;;;;;-2.47;100.00;100079.97;6015501;29;20060;-88
2021/12/25 02:16:35;;;;;;;1.73;0.90;;;;;;;-2.45;100.00;100083.31;6033129;29;20427;-88
2021/12/25 02:19:46;;;;;;;1.58;0.50;;;;;;;-2.45;100.00;100083.31;6022200;29;20065;-88
2021/12/25 02:23:03;;;;;;;2.03;0.65;;;;;;;-2.46;100.00;100081.66;6030820;29;20053;-88
2021/12/25 02:26:05;;;;;;;0.95;0.50;;;;;;;-2.38;100.00;100087.28;6028132;29;20057;-88
2021/12/25 02:29:07;;;;;;;1.45;0.60;;;;;;;-2.43;100.00;100084.09;6030600;29;20132;-88
2021/12/25 02:32:09;;;;;;;0.77;0.30;;;;;;;-2.42;100.00;100078.13;6032579;29;20063;-88
2021/12/25 02:35:16;;;;;;;2.88;0.50;;;;;;;-2.49;100.00;100084.25;6013314;29;20053;-88
2021/12/25 02:38:18;;;;;;;0.65;0.28;;;;;;;-2.61;100.00;100084.66;6022052;29;20104;-88
2021/12/25 02:41:20;;;;;;;0.88;0.40;;;;;;;-2.62;100.00;100088.06;6020023;29;20046;-88
2021/12/25 02:44:22;;;;;;;2.40;0.50;;;;;;;-2.87;100.00;100088.84;6013208;29;20037;-88
2021/12/25 02:47:31;;;;;;;3.03;0.40;;;;;;;-2.90;100.00;100099.06;6027115;29;20124;-88
2021/12/25 02:50:35;;;;;;;0.43;0.40;;;;;;;-2.96;100.00;100091.66;6027505;29;20060;-88
2021/12/25 02:53:39;;;;;;;0.63;0.50;;;;;;;-2.96;100.00;100095.88;6032744;29;20530;-88
2021/12/25 02:56:41;;;;;;;1.27;0.25;;;;;;;-3.05;100.00;100095.28;6027468;29;20543;-89
2021/12/25 02:59:43;;;;;;;1.08;0.30;;;;;;;-3.14;100.00;100087.97;6035545;29;20061;-88
2021/12/25 03:02:47;;;;;;;2.15;0.50;;;;;;;-3.20;100.00;100085.63;6027219;29;20049;-88
2021/12/25 03:05:51;;;;;;;1.30;0.65;;;;;;;-3.28;100.00;100090.91;6016326;29;20649;-88
2021/12/25 03:08:54;;;;;;;1.55;0.57;;;;;;;-3.31;100.00;100100.28;6025911;29;20045;-88
2021/12/25 03:11:56;;;;;;;2.92;0.57;;;;;;;-3.28;100.00;100093.44;6013551;29;20069;-88
2021/12/25 03:15:12;;;;;;;1.65;0.30;;;;;;;-3.41;100.00;100098.91;6014297;29;20046;-88
2021/12/25 03:18:17;;;;;;;0.40;0.40;;;;;;;-3.47;100.00;100102.44;6015803;29;20508;-88
2021/12/25 03:21:20;;;;;;;2.67;0.38;;;;;;;-3.52;100.00;100112.69;6013712;29;20065;-89
2021/12/25 03:24:21;;;;;;;1.38;0.40;;;;;;;-3.52;100.00;100127.03;6042155;29;20500;-88
2021/12/25 03:27:24;;;;;;;2.65;0.40;;;;;;;-3.62;100.00;100125.63;6033268;29;20180;-89
2021/12/25 03:30:26;;;;;;;1.83;0.60;;;;;;;-3.63;100.00;100119.72;6023759;29;20828;-88
2021/12/25 03:33:28;;;;;;;0.77;0.43;;;;;;;-3.55;100.00;100127.94;6015536;29;20056;-89
2021/12/25 03:36:44;;;;;;;1.45;0.50;;;;;;;-3.63;100.00;100127.31;6044433;29;20056;-89
2021/12/25 03:39:46;;;;;;;0.93;0.40;;;;;;;-3.61;100.00;100130.63;6015433;29;20132;-89
2021/12/25 03:42:48;;;;;;;1.48;0.40;;;;;;;-3.65;100.00;100130.75;6011864;29;20038;-89
2021/12/25 03:45:50;;;;;;;1.05;0.40;;;;;;;-3.69;100.00;100132.53;6023563;29;20563;-89
2021/12/25 03:58:36;;;;;;;0.60;0.38;;;;;;;-3.82;100.00;100144.69;6021458;29;20049;-89
2021/12/25 04:04:45;;;;;;;3.00;0.60;;;;;;;-3.90;100.00;100149.09;6021865;29;20575;-89
2021/12/25 04:08:03;;;;;;;0.52;0.30;;;;;;;-3.91;100.00;100150.78;6029062;29;20407;-89
2021/12/25 04:11:12;;;;;;;0.90;0.57;;;;;;;-3.97;100.00;100153.50;6032481;29;20056;-88
2021/12/25 04:14:14;;;;;;;1.85;0.50;;;;;;;-3.99;100.00;100152.69;6032911;29;20045;-88
2021/12/25 04:17:16;;;;;;;1.25;0.40;;;;;;;-3.93;100.00;100157.59;6029305;29;20042;-88
2021/12/25 04:20:20;;;;;;;0.68;0.40;;;;;;;-3.99;100.00;100164.50;6011047;29;20408;-88
2021/12/25 04:23:26;;;;;;;1.10;0.98;;;;;;;-4.00;100.00;100170.41;6026411;29;20519;-88
2021/12/25 04:26:28;;;;;;;3.58;0.80;;;;;;;-4.04;100.00;100159.56;6012982;29;20057;-88
2021/12/25 04:29:37;;;;;;;0.47;0.40;;;;;;;-4.11;100.00;100160.59;6040720;29;20743;-89
2021/12/25 04:50:07;;;;;;;1.80;0.60;;;;;;;-4.19;100.00;100148.13;6029730;29;20097;-89
2021/12/25 05:06:58;;;;;;;0.50;0.50;;;;;;;-4.33;100.00;100160.25;6038890;29;20080;-89
2021/12/25 05:10:00;;;;;;;0.98;0.65;;;;;;;-4.33;100.00;100160.25;6013237;29;20041;-89
2021/12/25 05:13:03;;;;;;;1.02;0.40;;;;;;;-4.35;100.00;100159.47;6023412;29;20073;-89
2021/12/25 05:16:05;;;;;;;1.27;0.55;;;;;;;-4.37;100.00;100164.56;6042228;29;20419;-89
2021/12/25 05:19:08;;;;;;;1.10;0.52;;;;;;;-4.25;100.00;100171.00;6046915;29;20056;-89
2021/12/25 05:22:13;;;;;;;2.13;0.60;;;;;;;-4.30;100.00;100170.28;5995211;29;20061;-89
2021/12/25 05:25:16;;;;;;;1.17;0.70;;;;;;;-4.34;100.00;100169.53;6026718;29;20053;-89
2021/12/25 05:28:38;;;;;;;1.27;0.65;;;;;;;-4.40;100.00;100174.72;6026195;29;20059;-89
2021/12/25 05:31:41;;;;;;;1.70;0.65;;;;;;;-4.40;100.00;100172.19;6033121;29;20045;-89
2021/12/25 05:35:15;;;;;;;0.35;0.30;;;;;;;-4.42;100.00;100170.56;6005565;29;20297;-89
2021/12/25 05:38:36;;;;;;;0.77;0.40;;;;;;;-4.44;100.00;100177.38;6026202;29;20058;-88
2021/12/25 05:41:59;;;;;;;0.98;0.32;;;;;;;-4.46;100.00;100177.41;6026441;29;20057;-89
2021/12/25 05:45:03;;;;;;;1.27;0.55;;;;;;;-4.46;100.00;100186.69;6030284;29;20239;-89
2021/12/25 05:48:10;;;;;;;1.77;0.57;;;;;;;-4.55;100.00;100195.28;6009277;29;20059;-89
2021/12/25 05:51:21;;;;;;;1.75;0.50;;;;;;;-4.49;100.00;100197.69;6022731;29;20049;-89
2021/12/25 05:54:31;;;;;;;0.93;0.40;;;;;;;-4.53;100.00;100197.78;6029923;29;20378;-89
2021/12/25 05:57:52;;;;;;;1.30;0.68;;;;;;;-4.55;100.00;100201.19;6023916;29;20041;-89
2021/12/25 06:01:12;;;;;;;0.40;0.40;;;;;;;-4.67;100.00;100200.59;6032647;29;20132;-89
2021/12/25 06:04:15;;;;;;;1.60;0.40;;;;;;;-4.65;100.00;100202.22;6015644;29;20432;-90
2021/12/25 06:07:17;;;;;;;1.42;0.40;;;;;;;-4.58;100.00;100205.47;6029911;29;20132;-89
2021/12/25 06:10:19;;;;;;;2.65;0.60;;;;;;;-4.69;100.00;100208.22;6004064;29;20107;-90
2021/12/25 06:13:22;;;;;;;1.75;0.45;;;;;;;-4.68;100.00;100214.94;6024793;29;20056;-90
2021/12/25 06:16:27;;;;;;;0.93;0.65;;;;;;;-4.62;100.00;100212.28;6016040;29;20124;-90
2021/12/25 06:19:49;;;;;;;2.78;0.50;;;;;;;-4.58;100.00;100223.13;6027186;29;20049;-90
2021/12/25 06:23:09;;;;;;;0.73;0.40;;;;;;;-4.64;100.00;100224.09;6024068;29;20069;-91
2021/12/25 06:26:31;;;;;;;1.63;0.75;;;;;;;-4.68;100.00;100219.97;6031294;29;20056;-90
2021/12/25 06:29:45;;;;;;;1.52;0.50;;;;;;;-4.70;100.00;100231.78;6040786;29;20407;-90
2021/12/25 06:33:06;;;;;;;1.35;0.40;;;;;;;-4.68;100.00;100230.06;6042708;29;20057;-90
2021/12/25 06:36:26;;;;;;;2.30;0.47;;;;;;;-4.73;100.00;100243.66;6037370;29;20048;-90
2021/12/25 06:39:48;;;;;;;1.17;0.70;;;;;;;-4.68;100.00;100242.69;6042041;29;20058;-90
2021/12/25 06:42:56;;;;;;;2.00;0.60;;;;;;;-4.73;100.00;100234.41;6020853;29;20140;-90
2021/12/25 06:45:58;;;;;;;2.78;0.80;;;;;;;-4.70;100.00;100233.50;6040367;29;20041;-91
2021/12/25 06:49:02;;;;;;;1.85;0.80;;;;;;;-4.81;100.00;100238.78;6040519;29;20041;-91
2021/12/25 06:52:27;;;;;;;0.50;0.50;;;;;;;-4.79;100.00;100237.06;6026636;29;20117;-91
2021/12/25 06:55:47;;;;;;;1.02;0.60;;;;;;;-4.95;100.00;100243.25;6041666;29;20053;-91
2021/12/25 06:59:06;;;;;;;0.80;0.52;;;;;;;-4.89;100.00;100249.03;6013219;29;20520;-90
2021/12/25 07:02:15;;;;;;;1.75;0.57;;;;;;;-4.95;100.00;100251.66;6031397;29;20064;-91
2021/12/25 07:05:36;;;;;;;0.73;0.57;;;;;;;-4.98;100.00;100257.59;6025342;29;20065;-90
2021/12/25 07:08:44;;;;;;;2.63;0.60;;;;;;;-5.01;100.00;100261.91;6045205;29;20054;-91
2021/12/25 07:12:06;;;;;;;;;;;;;;;-4.96;100.00;100269.38;6032780;29;20065;-91
2021/12/25 07:15:27;;;;;;;2.95;0.80;;;;;;;-5.02;100.00;100276.22;6046240;29;19927;-91
2021/12/25 07:18:47;;;;;;;2.28;0.68;;;;;;;-5.00;100.00;100282.03;6047365;29;20049;-91
2021/12/25 07:22:07;;;;;;;1.10;0.50;;;;;;;-4.95;100.00;100283.66;6043854;29;20054;-91
2021/12/25 07:25:24;;;;;;;1.63;0.65;;;;;;;-5.06;100.00;100276.28;6029648;29;20078;-91
2021/12/25 07:28:45;;;;;;;0.68;0.50;;;;;;;-5.04;100.00;100270.34;6041819;29;20412;-91
2021/12/25 07:31:49;;;;;;;0.57;0.40;;;;;;;-5.07;100.00;100282.19;6045590;29;20052;-91
2021/12/25 07:34:51;;;;;;;1.08;0.50;;;;;;;-5.01;100.00;100282.91;6050056;29;20041;-91
2021/12/25 07:37:55;;;;;;;2.78;0.73;;;;;;;-4.95;100.00;100288.69;6045896;29;20037;-91
2021/12/25 07:40:57;;;;;;;1.77;0.57;;;;;;;-5.02;100.00;100288.81;6034669;29;20040;-91
2021/12/25 07:44:01;;;;;;;1.17;0.60;;;;;;;-5.04;100.00;100303.16;6055542;29;20522;-91
2021/12/25 07:47:14;;;;;;;2.25;0.60;;;;;;;-5.00;100.00;100298.88;6028655;29;20052;-91
2021/12/25 07:50:17;;;;;;;0.52;0.40;;;;;;;-4.90;100.00;100299.53;6036934;29;20056;-92
2021/12/25 07:53:19;;;;;;;1.73;0.80;;;;;;;-4.89;100.00;100303.75;6041770;29;20398;-92
2021/12/25 07:56:25;;;;;;;1.58;0.50;;;;;;;-4.92;100.00;100304.59;6048229;29;20050;-91
2021/12/25 07:59:27;;;;;;;0.88;0.50;;;;;;;-4.93;100.00;100310.53;6049030;29;20041;-91
2021/12/25 08:02:29;;;;;;;1.10;0.50;;;;;;;-4.88;100.00;100310.44;6054213;29;20129;-91
2021/12/25 08:05:32;;;;;;;1.55;0.60;;;;;;;-4.91;100.00;100310.50;6046943;29;20057;-91
2021/12/25 08:08:35;;;;;;;2.78;0.52;;;;;;;-4.89;100.00;100308.78;6026867;29;20182;-92
2021/12/25 08:11:40;;;;;;;0.95;0.55;;;;;;;-4.88;100.00;100305.38;6054153;29;20045;-91
2021/12/25 08:14:43;;;;;;;1.60;0.55;;;;;;;-4.83;100.00;100311.19;6036700;29;20548;-92
2021/12/25 08:17:46;;;;;;;2.13;0.47;;;;;;;-4.82;100.00;100306.13;6034502;29;20054;-92
2021/12/25 08:21:10;;;;;;;0.93;0.55;;;;;;;-4.83;100.00;100317.06;6051455;29;20053;-92
2021/12/25 08:24:31;;;;;;;2.28;0.70;;;;;;;-4.82;100.00;100315.34;6042035;29;20046;-91
2021/12/25 08:27:53;;;;;;;1.15;0.88;;;;;;;-4.78;100.00;100319.50;6042629;29;20129;-91
2021/12/25 08:31:04;;;;;;;1.63;0.50;;;;;;;-4.76;100.00;100327.88;6028317;29;20320;-91
2021/12/25 08:34:30;;;;;;;1.60;0.55;;;;;;;-4.80;100.00;100322.03;6030096;29;20057;-91
2021/12/25 08:37:37;;;;;;;1.25;0.57;;;;;;;-4.78;100.00;100332.13;6017431;29;20420;-91
2021/12/25 08:40:43;;;;;;;1.60;0.60;;;;;;;-4.76;100.00;100332.94;6045479;29;20045;-91
2021/12/25 08:43:49;;;;;;;2.67;0.60;;;;;;;-4.74;100.00;100332.88;6030858;29;20136;-91
2021/12/25 08:46:56;;;;;;;1.63;0.75;;;;;;;-4.74;100.00;100331.22;6036513;29;20597;-91
2021/12/25 08:50:00;;;;;;;1.63;0.60;;;;;;;-4.70;100.00;100335.31;6052987;29;20419;-91
2021/12/25 08:53:05;;;;;;;6.90;1.70;;;;;;;-4.70;100.00;100344.59;6055828;29;20051;-92
2021/12/25 08:56:11;;;;;;;1.98;0.60;;;;;;;-4.71;100.00;100348.00;6055742;29;20191;-91
2021/12/25 08:59:15;;;;;;;1.83;0.63;;;;;;;-4.72;100.00;100349.69;6054939;29;20477;-91
2021/12/25 09:02:19;;;;;;;1.50;0.70;;;;;;;-4.70;100.00;100345.41;6054561;29;20056;-89
2021/12/25 09:05:22;;;;;;;0.47;0.45;;;;;;;-4.66;100.00;100354.59;6049055;29;20049;-91
2021/12/25 09:08:31;;;;;;;4.10;0.68;;;;;;;-4.66;100.00;100356.31;6026072;29;20496;-92
2021/12/25 09:11:35;;;;;;;1.02;0.75;;;;;;;-4.71;100.00;100363.13;6024999;29;20041;-91
2021/12/25 09:14:37;;;;;;;1.15;0.52;;;;;;;-4.68;100.00;100365.59;6045549;29;20048;-91
2021/12/25 09:17:40;;;;;;;1.08;0.50;;;;;;;-4.58;100.00;100378.00;6048183;29;20046;-90
2021/12/25 09:20:42;;;;;;;1.33;0.50;;;;;;;-4.63;100.00;100371.41;6048682;29;20075;-91
2021/12/25 09:23:44;;;;;;;3.97;0.60;;;;;;;-4.64;100.00;100373.09;6048953;29;20056;-91
2021/12/25 09:26:47;;;;;;;2.58;0.75;;;;;;;-4.62;100.00;100376.44;6033149;29;20048;-91
2021/12/25 09:29:50;;;;;;;2.75;0.95;;;;;;;-4.60;100.00;100367.09;6016941;29;20536;-90
2021/12/25 09:32:53;;;;;;;3.67;0.90;;;;;;;-4.58;100.00;100377.19;6033145;29;20255;-91
2021/12/25 09:35:55;;;;;;;1.02;0.70;;;;;;;-4.58;100.00;100374.66;6049194;29;20037;-91
2021/12/25 09:39:00;;;;;;;1.48;0.77;;;;;;;-4.60;100.00;100383.97;6049744;29;20041;-91
2021/12/25 09:42:07;;;;;;;2.72;1.10;;;;;;;-4.55;100.00;100379.66;6053012;29;20128;-91
2021/12/25 09:45:14;;;;;;;3.78;1.20;;;;;;;-4.57;100.00;100374.66;6053182;29;20556;-91
2021/12/25 09:48:19;;;;;;;2.70;0.77;;;;;;;-4.57;100.00;100378.84;6034608;29;20044;-91
2021/12/25 09:51:22;;;;;;;2.72;0.80;;;;;;;-4.53;100.00;100382.16;6051337;29;20128;-91
2021/12/25 09:54:28;;;;;;;2.40;0.77;;;;;;;-4.48;100.00;100377.84;6051959;29;20044;-91
2021/12/25 09:57:31;;;;;;;3.42;0.90;;;;;;;-4.36;100.00;100398.63;6051188;29;20037;-91
2021/12/25 10:00:36;;;;;;;2.65;1.50;;;;;;;-4.44;100.00;100389.56;6052508;29;20165;-91
2021/12/25 10:03:57;;;;;;;1.55;0.90;;;;;;;-4.39;100.00;100386.06;6038322;29;20064;-91
2021/12/25 10:07:15;;;;;;;0.90;0.73;;;;;;;-4.33;100.00;100380.06;6052026;29;20049;-91
2021/12/25 10:10:21;;;;;;;1.67;0.80;;;;;;;-4.35;100.00;100384.31;6035471;29;20055;-91
2021/12/25 10:13:41;;;;;;;1.42;0.70;;;;;;;-4.37;100.00;100391.94;6033816;29;20053;-91
2021/12/25 10:16:43;;;;;;;1.25;0.70;;;;;;;-4.36;100.00;100388.53;6049215;29;20053;-91
2021/12/25 10:20:14;;;;;;;1.02;0.77;;;;;;;-4.28;100.00;100390.06;6050954;29;20411;-91
2021/12/25 10:23:22;;;;;;;3.97;0.98;;;;;;;-4.31;100.00;100388.44;6050472;29;20041;-91
2021/12/25 10:26:24;;;;;;;2.35;0.82;;;;;;;-4.21;100.00;100404.25;6034882;29;20049;-91
2021/12/25 10:29:29;;;;;;;1.92;1.00;;;;;;;-4.24;100.00;100395.03;6035274;29;20049;-90
2021/12/25 10:32:38;;;;;;;1.80;0.90;;;;;;;-4.34;100.00;100383.47;6035049;29;20045;-91
2021/12/25 10:35:42;;;;;;;3.70;1.48;;;;;;;-4.35;100.00;100375.06;6044739;29;20129;-91
2021/12/25 10:39:08;;;;;;;2.78;1.42;;;;;;;-4.27;100.00;100379.94;6049947;29;20134;-91
2021/12/25 10:42:16;;;;;;;2.00;0.98;;;;;;;-4.24;100.00;100390.00;6052589;29;20052;-90
2021/12/25 10:45:18;;;;;;;1.60;1.20;;;;;;;-4.21;100.00;100386.56;6038250;29;20045;-90
2021/12/25 10:48:27;;;;;;;2.08;0.70;;;;;;;-4.12;100.00;100379.63;6055576;29;20040;-90
2021/12/25 10:51:31;;;;;;;2.47;1.00;;;;;;;-4.18;100.00;100382.28;6036468;29;20057;-90
2021/12/25 10:54:49;;;;;;;1.75;1.05;;;;;;;-4.14;100.00;100378.00;6044199;29;20411;-89
2021/12/25 10:57:59;;;;;;;1.83;0.77;;;;;;;-4.11;100.00;100370.34;6049190;29;20056;-89
2021/12/25 11:01:01;;;;;;;2.42;0.73;;;;;;;-4.11;100.00;100378.75;6021606;29;20060;-89
2021/12/25 11:04:04;;;;;;;2.15;0.90;;;;;;;-4.08;100.00;100369.44;6036352;29;20064;-89
2021/12/25 11:07:16;;;;;;;1.88;0.88;;;;;;;-4.03;100.00;100365.94;6053617;29;20044;-89
2021/12/25 11:10:19;;;;;;;2.08;0.50;;;;;;;-3.89;100.00;100368.19;6020934;29;20052;-90
2021/12/25 11:13:27;;;;;;;1.90;0.63;;;;;;;-3.93;100.00;100364.06;6040642;29;20048;-90
2021/12/25 11:16:36;;;;;;;1.67;0.63;;;;;;;-3.94;100.00;100375.03;6053714;29;20056;-90
2021/12/25 11:19:56;;;;;;;1.08;0.60;;;;;;;-3.95;100.00;100376.75;6053556;29;20456;-90
2021/12/25 11:23:00;;;;;;;1.25;0.77;;;;;;;-3.94;100.00;100370.00;6036599;29;20049;-90
2021/12/25 11:26:02;;;;;;;2.20;1.10;;;;;;;-3.96;100.00;100364.97;6050865;29;20158;-90
2021/12/25 11:29:07;;;;;;;1.17;0.60;;;;;;;-3.91;100.00;100360.63;6052354;29;20116;-90
2021/12/25 11:32:11;;;;;;;1.20;0.75;;;;;;;-3.81;100.00;100371.38;6036567;29;20162;-90
2021/12/25 11:35:16;;;;;;;0.80;0.60;;;;;;;-3.78;100.00;100373.81;6052797;29;20155;-90
2021/12/25 11:38:18;;;;;;;1.60;0.85;;;;;;;-3.77;100.00;100367.91;6050980;29;20097;-90
2021/12/25 11:41:27;;;;;;;1.45;0.80;;;;;;;-3.68;100.00;100366.88;6033996;29;20045;-90
2021/12/25 11:44:42;;;;;;;1.23;0.80;;;;;;;-3.69;100.00;100363.50;6053034;29;20120;-90
2021/12/25 11:47:59;;;;;;;2.38;1.30;;;;;;;-3.72;100.00;100365.28;6036785;29;20059;-90
2021/12/25 11:51:01;;;;;;;5.10;1.00;;;;;;;-3.67;100.00;100370.25;6049787;29;20040;-90
2021/12/25 11:54:27;;;;;;;2.53;0.90;;;;;;;-3.64;100.00;100378.59;6052476;29;20033;-90
2021/12/25 11:58:02;;;;;;;0.88;0.65;;;;;;;-3.67;100.00;100362.66;6052434;29;20085;-90
2021/12/25 12:01:42;;;;;;;0.77;0.75;;;;;;;-3.65;100.00;100371.88;6035848;29;20072;-90
2021/12/25 12:04:45;;;;;;;0.88;0.63;;;;;;;-3.66;100.00;100370.19;6052518;29;20147;-90
2021/12/25 12:08:12;;;;;;;2.63;0.88;;;;;;;-3.58;100.00;100367.50;6023476;29;20855;-90
2021/12/25 12:11:33;;;;;;;2.22;0.88;;;;;;;-3.64;100.00;100365.94;6038319;29;20136;-89
2021/12/25 12:14:44;;;;;;;1.35;1.00;;;;;;;-3.58;100.00;100368.31;6049222;29;20120;-90
2021/12/25 12:18:23;;;;;;;2.13;1.00;;;;;;;-3.62;100.00;100363.38;6021536;29;20061;-90
2021/12/25 12:21:41;;;;;;;1.88;0.80;;;;;;;-3.61;100.00;100359.97;6044775;29;20048;-90
2021/12/25 12:24:51;;;;;;;3.35;0.80;;;;;;;-3.52;100.00;100362.28;6033161;29;20307;-89
2021/12/25 12:27:59;;;;;;;2.03;0.93;;;;;;;-3.55;100.00;100359.81;6049050;29;20061;-89
2021/12/25 12:31:01;;;;;;;1.65;1.10;;;;;;;-3.56;100.00;100356.47;6050541;29;20041;-90
2021/12/25 12:34:34;;;;;;;4.88;1.20;;;;;;;-3.58;100.00;100355.66;6050177;29;20053;-90
2021/12/25 12:37:38;;;;;;;4.07;1.20;;;;;;;-3.57;100.00;100349.75;6050359;29;20052;-90
2021/12/25 12:40:43;;;;;;;3.63;0.98;;;;;;;-3.61;100.00;100354.91;6033844;29;20052;-90
2021/12/25 12:44:14;;;;;;;1.95;1.15;;;;;;;-3.65;100.00;100351.66;6033361;29;20122;-90
2021/12/25 12:47:18;;;;;;;1.40;0.90;;;;;;;-3.60;100.00;100359.09;6028429;29;20045;-90
2021/12/25 12:50:31;;;;;;;1.02;0.60;;;;;;;-3.55;100.00;100352.22;6048891;29;20411;-90
2021/12/25 12:53:38;;;;;;;1.23;0.63;;;;;;;-3.54;100.00;100362.31;6032774;29;20051;-90
2021/12/25 12:57:05;;;;;;;1.50;0.63;;;;;;;-3.62;100.00;100353.28;6030855;29;20052;-90
2021/12/25 13:00:22;;;;;;;1.42;0.80;;;;;;;-3.69;100.00;100358.44;6031192;29;20060;-90
2021/12/25 13:03:26;;;;;;;2.38;1.05;;;;;;;-3.71;100.00;100366.94;6020877;29;20092;-90
2021/12/25 13:06:31;;;;;;;2.05;0.90;;;;;;;-3.72;100.00;100361.06;6048070;29;20137;-90
2021/12/25 13:09:39;;;;;;;1.42;0.70;;;;;;;-3.79;100.00;100358.72;6048898;29;20045;-88
2021/12/25 13:15:46;;;;;;;2.20;0.90;;;;;;;-3.77;100.00;100362.88;6049232;29;20049;-87
2021/12/25 13:18:49;;;;;;;2.45;0.70;;;;;;;-3.82;100.00;100359.59;6050121;29;20487;-86
2021/12/25 13:21:52;;;;;;;5.63;1.10;;;;;;;-3.86;100.00;100354.66;6031911;29;20594;-88
2021/12/25 13:25:10;;;;;;;1.73;0.90;;;;;;;-3.86;100.00;100380.75;6049950;29;20049;-87
2021/12/25 13:28:13;;;;;;;2.42;1.67;;;;;;;-3.92;100.00;100370.78;6050955;29;20173;-88
2021/12/25 13:31:19;;;;;;;2.03;0.85;;;;;;;-3.96;100.00;100374.25;6052659;29;20045;-86
2021/12/25 13:34:23;;;;;;;3.80;0.90;;;;;;;-3.97;100.00;100370.06;6036146;29;20452;-86
2021/12/25 13:37:24;;;;;;;2.40;1.08;;;;;;;-3.98;100.00;100375.97;6054080;29;20096;-86
2021/12/25 13:40:27;;;;;;;2.28;1.05;;;;;;;-4.02;100.00;100370.16;6053461;29;20048;-87
2021/12/25 13:43:30;;;;;;;1.90;0.90;;;;;;;-4.06;100.00;100380.38;6050879;29;20522;-87
2021/12/25 13:46:43;;;;;;;2.55;1.40;;;;;;;-4.11;100.00;100382.97;6030026;29;20518;-87
2021/12/25 13:50:05;;;;;;;3.10;1.17;;;;;;;-4.13;100.00;100369.53;6041720;29;20052;-87
2021/12/25 13:53:11;;;;;;;1.65;0.80;;;;;;;-4.14;100.00;100368.72;6041044;29;20060;-87
2021/12/25 13:56:14;;;;;;;1.05;0.75;;;;;;;-4.07;100.00;100383.75;6025230;29;20050;-87
2021/12/25 13:59:17;;;;;;;1.70;1.02;;;;;;;-4.09;100.00;100382.97;6041678;29;20507;-87
2021/12/25 14:02:21;;;;;;;1.23;0.85;;;;;;;-4.11;100.00;100382.97;6041271;29;20057;-87
2021/12/25 14:05:26;;;;;;;1.52;0.75;;;;;;;-4.08;100.00;100379.56;6051426;29;20073;-87
2021/12/25 14:08:28;;;;;;;1.50;0.88;;;;;;;-4.17;100.00;100383.13;6034254;29;20052;-87
2021/12/25 14:11:30;;;;;;;2.50;0.85;;;;;;;-4.17;100.00;100385.66;6029243;29;20488;-87
2021/12/25 14:14:33;;;;;;;2.40;1.20;;;;;;;-4.18;100.00;100389.84;6053289;29;20706;-87
2021/12/25 14:17:37;;;;;;;1.95;1.13;;;;;;;-4.22;100.00;100390.78;6055001;29;20037;-88
2021/12/25 14:20:40;;;;;;;3.70;1.05;;;;;;;-4.26;100.00;100390.88;6049779;29;20140;-88
2021/12/25 14:23:43;;;;;;;3.22;1.02;;;;;;;-4.27;100.00;100400.16;6037361;29;20052;-88
2021/12/25 14:26:46;;;;;;;3.25;1.17;;;;;;;-4.19;100.00;100400.84;6052283;29;20128;-88
2021/12/25 14:29:50;;;;;;;1.58;1.30;;;;;;;-4.27;100.00;100400.16;6055476;29;20045;-87
2021/12/25 14:32:52;;;;;;;2.83;1.33;;;;;;;-4.30;100.00;100402.72;6037858;29;20530;-87
2021/12/25 14:35:55;;;;;;;1.10;0.90;;;;;;;-4.37;100.00;100396.16;6052493;29;20396;-88
2021/12/25 14:38:58;;;;;;;2.78;0.90;;;;;;;-4.42;100.00;100402.97;6054562;29;20049;-86
2021/12/25 14:42:00;;;;;;;3.38;1.00;;;;;;;-4.38;100.00;100397.84;6053832;29;20427;-88
2021/12/25 14:45:03;;;;;;;1.92;0.95;;;;;;;-4.52;100.00;100407.41;6036985;29;20481;-88
2021/12/25 14:48:06;;;;;;;2.67;1.15;;;;;;;-4.56;100.00;100400.72;6030045;29;20194;-88
2021/12/25 14:51:17;;;;;;;1.90;1.13;;;;;;;-4.56;100.00;100393.16;6044843;29;20167;-88
2021/12/25 14:54:28;;;;;;;1.45;1.00;;;;;;;-4.59;100.00;100398.25;6051147;29;20108;-88
2021/12/25 14:57:30;;;;;;;1.05;0.95;;;;;;;-4.70;100.00;100398.44;6053235;29;20056;-88
2021/12/25 15:00:32;;;;;;;1.40;0.93;;;;;;;-4.75;100.00;100400.22;6054043;29;20053;-88
2021/12/25 15:03:36;;;;;;;2.22;1.13;;;;;;;-4.82;100.00;100403.72;6037452;29;20876;-88
2021/12/25 15:06:53;;;;;;;1.70;0.75;;;;;;;-4.86;100.00;100402.13;6036892;29;20112;-88
2021/12/25 15:09:57;;;;;;;1.27;0.93;;;;;;;-4.93;100.00;100408.13;6032321;29;20060;-88
2021/12/25 15:13:12;;;;;;;0.77;0.75;;;;;;;-5.01;100.00;100409.09;6036528;29;20416;-88
2021/12/25 15:16:14;;;;;;;3.38;1.45;;;;;;;-5.07;100.00;100403.31;6052755;29;20053;-88
2021/12/25 15:19:29;;;;;;;2.28;1.30;;;;;;;-5.14;100.00;100399.22;6036429;29;20815;-88
2021/12/25 15:22:32;;;;;;;1.15;1.05;;;;;;;-5.21;100.00;100399.31;6052845;29;20578;-88
2021/12/25 15:25:35;;;;;;;2.85;1.00;;;;;;;-5.18;100.00;100400.16;6039461;29;20514;-88
2021/12/25 15:28:39;;;;;;;2.00;1.27;;;;;;;-5.22;100.00;100402.72;6035837;29;20522;-88
2021/12/25 15:31:43;;;;;;;2.47;1.33;;;;;;;-5.27;100.00;100403.63;6023444;29;20822;-88
2021/12/25 15:34:56;;;;;;;2.30;1.08;;;;;;;-5.34;100.00;100410.47;6030904;29;20427;-88
2021/12/25 15:37:59;;;;;;;2.00;1.17;;;;;;;-5.32;100.00;100415.50;6049920;29;20049;-88
2021/12/25 15:41:07;;;;;;;8.30;1.90;;;;;;;-5.41;100.00;100409.72;6051130;29;20049;-88